サンパウロ/グアルーリョス の空港の天気 - METARとTAF

グアルーリョス国際空港 (サンパウロ) ( SBGR / GRU ) - ブラジル サンパウロ州サンパウロ市
飛行場実況気象(Metar)
観測時間10/26 12:00 BRT (10/26 15:00 UTC)
風向・風速東 3m/s
視程10km以上
天気現象
全天の8割程度の雲 雲底高度 1100m
気温24℃
湿度57%
気圧1014hPa
METARSBGR 261500Z 08006KT 9999 BKN036 24/15 Q1014
過去の天気等 Google飛行場航空写真 Wunderground天気予報

過去48時間のMETAR

飛行場予報(TAF)
発表時間: 10/26 07:00 BRT (10/26 10:00 UTC)
予報対象時間: 26日9時 BRT ~ 27日15時 BRT
風向・風速東北東 3m/s
視程10km以上
全天の8割程度の雲 雲底高度 430m
26日9時 BRT ~ 26日11時 BRT に徐々に
全天の8割程度の雲 雲底高度 760m
26日11時 BRT ~ 26日13時 BRT に徐々に
風向・風速南東 3m/s
全天の4割程度の雲 雲底高度 910m
26日17時 BRT ~ 26日19時 BRT に徐々に
風向・風速南南東 5m/s
全天の8割程度の雲 雲底高度 400m
26日22時 BRT ~ 26日24時 BRT に徐々に
風向・風速東 2m/s
視程10km以上
なし
27日2時 BRT ~ 27日4時 BRT に徐々に
風向・風速東北東 3m/s
27日4時 BRT から 確率 30% で
視程4000m
天気現象もや
全天の8割程度の雲 雲底高度 240m
27日10時 BRT ~ 27日12時 BRT に徐々に
風向・風速北北西 6m/s 瞬間風速 11m/s
全天の4割程度の雲 雲底高度 910m
TAF SBGR 261000Z 2612/2718 07005KT 9999 BKN014 TN17/2709Z TX28/2717Z
BECMG 2612/2614 BKN025
BECMG 2614/2616 14006KT SCT030
BECMG 2620/2622 15010KT BKN013
BECMG 2701/2703 10003KT CAVOK
BECMG 2705/2707 06005KT
PROB30 2707/2711 4000 BR BKN008
BECMG 2713/2715 34012G22KT SCT030 RMK PGD